createdAt,value
2022-08-28T00:00:36.244Z,3.17
2022-08-28T00:03:05.745Z,5.03
2022-08-28T00:05:34.177Z,2.47
2022-08-28T00:08:01.789Z,6.47
2022-08-28T00:10:30.474Z,5.87
2022-08-28T00:12:58.330Z,3.57
2022-08-28T00:15:27.685Z,15.33
2022-08-28T00:17:55.933Z,4.20
2022-08-28T00:20:25.255Z,2.27
2022-08-28T00:22:55.804Z,3.57
2022-08-28T00:25:24.566Z,4.33
2022-08-28T00:27:55.024Z,1.50
2022-08-28T00:30:24.881Z,12.47
2022-08-28T00:32:53.009Z,14.20
2022-08-28T00:35:21.869Z,3.87
2022-08-28T00:37:51.579Z,6.10
2022-08-28T00:40:28.510Z,12.83
2022-08-28T00:42:58.290Z,5.50
2022-08-28T00:45:26.587Z,2.67
2022-08-28T00:47:54.295Z,6.17
2022-08-28T00:50:23.379Z,1.30
2022-08-28T00:52:54.912Z,2.57
2022-08-28T00:55:24.563Z,4.60
2022-08-28T00:57:54.192Z,1.90
2022-08-28T01:00:25.348Z,4.57
2022-08-28T01:02:53.126Z,8.30
2022-08-28T01:05:21.078Z,2.87
2022-08-28T01:07:48.807Z,2.03
2022-08-28T01:10:19.119Z,3.63
2022-08-28T01:12:47.710Z,3.43
2022-08-28T01:15:17.451Z,4.20
2022-08-28T01:17:47.357Z,1.77
2022-08-28T01:20:17.339Z,5.13
2022-08-28T01:22:49.257Z,6.20
2022-08-28T01:25:19.731Z,11.03
2022-08-28T01:27:47.854Z,1.30
2022-08-28T01:30:16.291Z,2.60
2022-08-28T01:32:45.845Z,2.63
2022-08-28T01:35:14.658Z,1.77
2022-08-28T01:37:42.461Z,25.93
2022-08-28T01:40:11.057Z,25.20
2022-08-28T01:42:40.343Z,26.30
2022-08-28T01:45:11.364Z,28.00
2022-08-28T01:47:38.971Z,33.93
2022-08-28T01:50:07.996Z,34.60
2022-08-28T01:52:36.514Z,30.30
2022-08-28T01:55:05.270Z,29.23
2022-08-28T01:57:33.610Z,31.43
2022-08-28T02:00:02.813Z,39.77
2022-08-28T02:02:39.867Z,34.83
2022-08-28T02:05:08.467Z,33.07
2022-08-28T02:07:36.175Z,36.87
2022-08-28T02:10:03.960Z,30.53
2022-08-28T02:12:32.130Z,38.77
2022-08-28T02:14:59.836Z,43.23
2022-08-28T02:17:28.728Z,41.83
2022-08-28T02:19:56.759Z,39.63
2022-08-28T02:22:24.781Z,36.23
2022-08-28T02:24:53.012Z,37.60
2022-08-28T02:27:20.970Z,32.77
2022-08-28T02:29:48.542Z,36.63
2022-08-28T02:32:16.341Z,33.30
2022-08-28T02:34:45.809Z,36.83
2022-08-28T02:37:13.703Z,44.30
2022-08-28T02:39:41.643Z,48.40
2022-08-28T02:42:09.365Z,42.30
2022-08-28T02:44:36.932Z,52.80
2022-08-28T02:47:05.432Z,38.90
2022-08-28T02:49:36.053Z,40.40
2022-08-28T02:52:06.937Z,33.53
2022-08-28T02:54:35.629Z,40.07
2022-08-28T02:57:03.413Z,37.03
2022-08-28T02:59:32.075Z,38.60
2022-08-28T03:01:59.675Z,33.10
2022-08-28T03:04:27.297Z,35.03
2022-08-28T03:06:54.853Z,32.93
2022-08-28T03:09:24.118Z,39.90
2022-08-28T03:11:53.931Z,30.40
2022-08-28T03:14:21.919Z,41.57
2022-08-28T03:16:50.049Z,29.73
2022-08-28T03:19:17.785Z,32.93
2022-08-28T03:21:45.364Z,33.40
2022-08-28T03:24:15.691Z,32.77
2022-08-28T03:26:45.008Z,27.33
2022-08-28T03:29:12.937Z,35.73
2022-08-28T03:31:41.587Z,31.67
2022-08-28T03:34:09.487Z,30.03
2022-08-28T03:36:37.405Z,25.80
2022-08-28T03:39:06.868Z,24.27
2022-08-28T03:41:34.622Z,29.80
2022-08-28T03:44:04.834Z,26.90
2022-08-28T03:46:33.926Z,26.70
2022-08-28T03:49:02.423Z,29.13
2022-08-28T03:51:32.702Z,27.40
2022-08-28T03:54:01.181Z,23.77
2022-08-28T03:56:30.539Z,27.70
2022-08-28T03:59:00.174Z,25.20
2022-08-28T04:01:29.883Z,23.50
2022-08-28T04:03:57.680Z,29.30
2022-08-28T04:06:25.499Z,21.27
2022-08-28T04:08:53.323Z,22.57
2022-08-28T04:11:20.890Z,27.10
2022-08-28T04:13:48.476Z,23.77
2022-08-28T04:16:19.291Z,23.40
2022-08-28T04:18:49.227Z,22.70
2022-08-28T04:21:18.393Z,21.20
2022-08-28T04:23:46.765Z,34.43
2022-08-28T04:26:17.030Z,23.63
2022-08-28T04:28:44.938Z,26.60
2022-08-28T04:31:13.013Z,23.70
2022-08-28T04:33:41.171Z,26.43
2022-08-28T04:36:12.432Z,22.70
2022-08-28T04:38:43.721Z,23.17
2022-08-28T04:41:14.186Z,31.10
2022-08-28T04:43:41.945Z,17.50
2022-08-28T04:46:11.264Z,33.07
2022-08-28T04:48:39.951Z,30.63
2022-08-28T04:51:08.529Z,18.97
2022-08-28T04:53:38.233Z,20.23
2022-08-28T04:56:07.281Z,18.67
2022-08-28T04:58:35.305Z,15.90
2022-08-28T05:01:06.950Z,22.50
2022-08-28T05:03:34.867Z,22.47
2022-08-28T05:06:04.638Z,29.30
2022-08-28T05:08:32.811Z,22.90
2022-08-28T05:11:11.768Z,23.90
2022-08-28T05:13:39.616Z,26.03
2022-08-28T05:16:07.355Z,29.03
2022-08-28T05:18:35.801Z,25.13
2022-08-28T05:21:03.590Z,22.30
2022-08-28T05:23:31.541Z,20.27
2022-08-28T05:25:59.522Z,18.17
2022-08-28T05:28:28.391Z,31.10
2022-08-28T05:30:55.918Z,17.60
2022-08-28T05:33:23.668Z,22.33
2022-08-28T05:35:51.288Z,19.70
2022-08-28T05:38:18.979Z,20.17
2022-08-28T05:40:48.018Z,18.03
2022-08-28T05:43:16.731Z,14.90
2022-08-28T05:45:45.780Z,20.37
2022-08-28T05:48:15.670Z,36.80
2022-08-28T05:50:47.438Z,22.93
2022-08-28T05:53:16.992Z,27.43
2022-08-28T05:55:44.806Z,26.87
2022-08-28T05:58:32.613Z,18.67
2022-08-28T06:01:12.367Z,23.53
2022-08-28T06:03:41.811Z,19.87
2022-08-28T06:06:10.399Z,26.43
2022-08-28T06:08:39.129Z,23.73
2022-08-28T06:11:26.812Z,24.17
2022-08-28T06:13:54.517Z,30.73
2022-08-28T06:16:23.611Z,26.03
2022-08-28T06:18:52.047Z,20.17
2022-08-28T06:21:20.661Z,17.10
2022-08-28T06:23:48.426Z,25.13
2022-08-28T06:26:16.206Z,26.50
2022-08-28T06:28:43.834Z,22.40
2022-08-28T06:31:24.464Z,28.40
2022-08-28T06:33:56.347Z,18.83
2022-08-28T06:36:24.213Z,16.73
2022-08-28T06:38:52.101Z,23.23
2022-08-28T06:41:20.306Z,15.03
2022-08-28T06:43:48.395Z,16.70
2022-08-28T06:46:16.440Z,25.07
2022-08-28T06:48:44.307Z,15.30
2022-08-28T06:51:13.799Z,17.73
2022-08-28T06:53:42.604Z,15.87
2022-08-28T06:56:12.005Z,16.67
2022-08-28T06:58:50.105Z,24.23
2022-08-28T07:01:23.792Z,25.33
2022-08-28T07:03:51.927Z,23.83
2022-08-28T07:06:22.710Z,16.27
2022-08-28T07:08:51.056Z,19.40
2022-08-28T07:11:20.300Z,16.37
2022-08-28T07:13:48.966Z,12.53
2022-08-28T07:16:18.095Z,19.03
2022-08-28T07:18:46.349Z,18.13
2022-08-28T07:21:14.262Z,19.17
2022-08-28T07:23:44.751Z,15.50
2022-08-28T07:26:13.929Z,22.60
2022-08-28T07:28:42.172Z,18.17
2022-08-28T07:31:12.007Z,17.20
2022-08-28T07:33:40.535Z,14.80
2022-08-28T07:36:08.871Z,20.37
2022-08-28T07:38:45.518Z,14.20
2022-08-28T07:41:13.930Z,17.47
2022-08-28T07:43:59.774Z,16.50
2022-08-28T07:46:29.182Z,17.93
2022-08-28T07:48:58.687Z,21.00
2022-08-28T07:51:26.868Z,15.50
2022-08-28T07:53:57.526Z,16.53
2022-08-28T07:56:26.326Z,18.77
2022-08-28T07:58:54.108Z,17.33
2022-08-28T08:01:22.586Z,24.67
2022-08-28T08:03:50.411Z,14.97
2022-08-28T08:06:28.115Z,15.90
2022-08-28T08:09:03.424Z,13.47
2022-08-28T08:11:32.620Z,19.70
2022-08-28T08:14:05.662Z,22.97
2022-08-28T08:16:34.595Z,20.63
2022-08-28T08:19:03.333Z,22.63
2022-08-28T08:21:31.377Z,16.43
2022-08-28T08:24:00.526Z,15.90
2022-08-28T08:26:30.885Z,18.43
2022-08-28T08:28:58.866Z,23.00
2022-08-28T08:31:28.234Z,13.53
2022-08-28T08:33:56.750Z,18.80
2022-08-28T08:36:25.913Z,13.50
2022-08-28T08:38:59.877Z,16.13
2022-08-28T08:41:31.362Z,14.13
2022-08-28T08:44:02.257Z,15.00
2022-08-28T08:46:33.406Z,17.13
2022-08-28T08:49:03.538Z,20.60
2022-08-28T08:51:38.716Z,23.53
2022-08-28T08:54:08.427Z,18.03
2022-08-28T08:56:37.525Z,20.20
2022-08-28T08:59:08.133Z,17.80
2022-08-28T09:01:40.041Z,16.30
2022-08-28T09:04:15.850Z,18.47
2022-08-28T09:06:49.907Z,21.97
2022-08-28T09:09:19.193Z,14.33
2022-08-28T09:11:52.204Z,17.10
2022-08-28T09:14:31.486Z,20.13
2022-08-28T09:16:59.487Z,18.53
2022-08-28T09:19:27.091Z,15.30
2022-08-28T09:21:55.168Z,15.97
2022-08-28T09:24:24.167Z,16.47
2022-08-28T09:26:57.272Z,16.10
2022-08-28T09:29:29.112Z,16.13
2022-08-28T09:31:57.355Z,19.77
2022-08-28T09:34:27.794Z,17.07
2022-08-28T09:36:56.543Z,16.57
2022-08-28T09:39:25.681Z,20.63
2022-08-28T09:42:13.698Z,21.93
2022-08-28T09:44:53.914Z,18.40
2022-08-28T09:47:46.045Z,16.80
2022-08-28T09:50:20.384Z,14.90
2022-08-28T09:52:48.315Z,16.67
2022-08-28T09:55:18.947Z,17.53
2022-08-28T09:57:47.687Z,17.73
2022-08-28T10:00:17.116Z,15.83
2022-08-28T10:02:46.956Z,21.60
2022-08-28T10:05:16.789Z,19.43
2022-08-28T10:07:48.954Z,20.90
2022-08-28T10:10:22.882Z,13.30
2022-08-28T10:12:55.559Z,17.73
2022-08-28T10:15:27.082Z,21.43
2022-08-28T10:18:08.798Z,17.37
2022-08-28T10:20:41.439Z,18.13
2022-08-28T10:23:17.429Z,17.60
2022-08-28T10:25:49.543Z,18.80
2022-08-28T10:28:23.738Z,19.30
2022-08-28T10:30:57.737Z,25.10
2022-08-28T10:33:31.767Z,18.27
2022-08-28T10:36:03.043Z,21.93
2022-08-28T10:38:37.821Z,21.73
2022-08-28T10:41:07.110Z,20.03
2022-08-28T10:43:36.175Z,27.20
2022-08-28T10:46:07.175Z,15.97
2022-08-28T10:48:36.509Z,44.40
2022-08-28T10:51:06.082Z,21.47
2022-08-28T10:53:37.506Z,73.00
2022-08-28T10:56:07.688Z,31.30
2022-08-28T10:58:38.282Z,36.03
2022-08-28T11:01:08.807Z,15.93
2022-08-28T11:03:41.637Z,49.53
2022-08-28T11:06:14.027Z,41.50
2022-08-28T11:08:42.018Z,38.93
2022-08-28T11:11:13.958Z,24.40
2022-08-28T11:13:47.075Z,16.03
2022-08-28T11:16:20.712Z,25.97
2022-08-28T11:19:14.472Z,22.70
2022-08-28T11:21:45.516Z,23.23
2022-08-28T11:24:25.655Z,18.40
2022-08-28T11:27:00.021Z,17.30
2022-08-28T11:29:47.923Z,19.97
2022-08-28T11:32:36.803Z,18.40
2022-08-28T11:37:58.062Z,21.00
2022-08-28T11:40:40.924Z,22.30
2022-08-28T11:43:23.587Z,24.70
2022-08-28T11:46:10.499Z,18.47
2022-08-28T11:48:50.871Z,23.53
2022-08-28T11:51:37.568Z,20.90
2022-08-28T11:54:10.059Z,22.40
2022-08-28T11:56:43.057Z,23.43
2022-08-28T11:59:35.108Z,20.40
2022-08-28T12:02:22.506Z,21.40
2022-08-28T12:04:51.660Z,25.53
2022-08-28T12:07:21.921Z,36.50
2022-08-28T12:09:50.759Z,34.23
2022-08-28T12:12:37.599Z,54.53
2022-08-28T12:15:09.791Z,30.00
2022-08-28T12:18:01.416Z,24.10
2022-08-28T12:20:38.885Z,38.33
2022-08-28T12:23:21.538Z,36.00
2022-08-28T12:25:49.594Z,24.00
2022-08-28T12:28:19.656Z,26.30
2022-08-28T12:30:53.187Z,22.30
2022-08-28T12:33:24.255Z,27.63
2022-08-28T12:35:53.396Z,22.27
2022-08-28T12:38:22.132Z,26.50
2022-08-28T12:40:52.996Z,20.43
2022-08-28T12:43:31.669Z,23.23
2022-08-28T12:46:01.495Z,17.53
2022-08-28T12:48:31.608Z,19.43
2022-08-28T12:51:03.121Z,16.17
2022-08-28T12:53:38.723Z,19.90
2022-08-28T12:56:07.003Z,15.37
2022-08-28T12:58:35.403Z,19.93
2022-08-28T13:01:05.143Z,16.40
2022-08-28T13:03:33.258Z,19.37
2022-08-28T13:06:05.043Z,17.93
2022-08-28T13:08:33.942Z,22.57
2022-08-28T13:11:02.071Z,23.50
2022-08-28T13:13:33.670Z,20.10
2022-08-28T13:16:01.984Z,20.47
2022-08-28T13:18:51.448Z,17.23
2022-08-28T13:21:37.310Z,53.03
2022-08-28T13:24:24.170Z,153.60
2022-08-28T13:27:00.611Z,126.77
2022-08-28T13:29:28.780Z,126.23
2022-08-28T13:31:59.395Z,42.20
2022-08-28T13:34:28.135Z,51.37
2022-08-28T13:36:59.623Z,36.53
2022-08-28T13:39:27.977Z,111.87
2022-08-28T13:41:56.629Z,30.60
2022-08-28T13:44:29.438Z,24.40
2022-08-28T13:46:57.735Z,20.97
2022-08-28T13:49:27.628Z,35.83
2022-08-28T13:51:57.865Z,31.00
2022-08-28T13:54:25.551Z,32.80
2022-08-28T13:56:55.433Z,15.50
2022-08-28T13:59:23.463Z,13.37
2022-08-28T14:02:09.733Z,16.80
2022-08-28T14:04:37.646Z,13.07
2022-08-28T14:07:07.448Z,19.10
2022-08-28T14:09:35.114Z,17.23
2022-08-28T14:12:04.443Z,10.20
2022-08-28T14:14:32.733Z,14.50
2022-08-28T14:17:00.998Z,13.43
2022-08-28T14:19:29.517Z,16.17
2022-08-28T14:21:57.708Z,21.60
2022-08-28T14:24:27.452Z,13.17
2022-08-28T14:26:55.404Z,14.47
2022-08-28T14:29:23.316Z,10.33
2022-08-28T14:31:51.030Z,17.30
2022-08-28T14:34:19.532Z,13.73
2022-08-28T14:36:50.799Z,13.67
2022-08-28T14:39:18.507Z,13.33
2022-08-28T14:41:49.275Z,12.90
2022-08-28T14:44:17.453Z,12.70
2022-08-28T14:46:46.470Z,16.70
2022-08-28T14:49:15.504Z,12.57
2022-08-28T14:51:44.031Z,14.87
2022-08-28T14:54:12.763Z,13.10
2022-08-28T14:56:41.287Z,13.87
2022-08-28T14:59:16.699Z,15.47
2022-08-28T15:01:46.383Z,14.53
2022-08-28T15:04:15.802Z,12.17
2022-08-28T15:06:43.953Z,12.53
2022-08-28T15:09:11.821Z,18.13
2022-08-28T15:11:40.509Z,13.83
2022-08-28T15:14:08.847Z,11.90
2022-08-28T15:16:40.102Z,16.83
2022-08-28T15:19:11.838Z,11.20
2022-08-28T15:21:42.156Z,12.53
2022-08-28T15:24:10.626Z,11.87
2022-08-28T15:26:40.241Z,12.07
2022-08-28T15:29:08.393Z,16.00
2022-08-28T15:31:37.019Z,29.13
2022-08-28T15:34:13.470Z,14.47
2022-08-28T15:36:42.277Z,15.67
2022-08-28T15:39:27.811Z,14.20
2022-08-28T15:41:55.679Z,11.53
2022-08-28T15:44:23.297Z,16.70
2022-08-28T15:46:52.704Z,21.97
2022-08-28T15:49:23.763Z,25.20
2022-08-28T15:51:52.140Z,23.63
2022-08-28T15:54:19.808Z,19.47
2022-08-28T15:56:48.012Z,19.77
2022-08-28T15:59:19.549Z,20.23
2022-08-28T16:01:47.514Z,23.63
2022-08-28T16:04:15.871Z,40.17
2022-08-28T16:06:45.410Z,26.47
2022-08-28T16:09:13.323Z,57.70
2022-08-28T16:11:42.382Z,18.90
2022-08-28T16:14:11.222Z,114.37
2022-08-28T16:16:38.878Z,29.00
2022-08-28T16:19:07.824Z,27.40
2022-08-28T16:21:35.882Z,16.70
2022-08-28T16:24:05.400Z,21.50
2022-08-28T16:26:33.294Z,22.03
2022-08-28T16:29:01.020Z,20.10
2022-08-28T16:31:29.969Z,20.77
2022-08-28T16:33:57.836Z,16.03
2022-08-28T16:36:26.340Z,17.87
2022-08-28T16:39:03.769Z,16.80
2022-08-28T16:41:33.218Z,18.53
2022-08-28T16:44:01.191Z,14.90
2022-08-28T16:46:28.990Z,17.10
2022-08-28T16:48:57.032Z,15.17
2022-08-28T16:51:27.188Z,27.33
2022-08-28T16:53:54.854Z,16.67
2022-08-28T16:56:23.739Z,15.80
2022-08-28T16:58:53.354Z,16.23
2022-08-28T17:01:24.099Z,14.80
2022-08-28T17:03:53.081Z,17.37
2022-08-28T17:06:23.295Z,16.97
2022-08-28T17:08:54.606Z,17.30
2022-08-28T17:11:24.614Z,17.93
2022-08-28T17:13:53.597Z,17.90
2022-08-28T17:16:22.772Z,13.50
2022-08-28T17:18:52.647Z,18.73
2022-08-28T17:21:38.295Z,17.20
2022-08-28T17:24:06.905Z,16.13
2022-08-28T17:26:34.513Z,26.53
2022-08-28T17:29:03.921Z,39.33
2022-08-28T17:31:31.792Z,36.03
2022-08-28T17:33:59.679Z,59.53
2022-08-28T17:36:33.338Z,62.77
2022-08-28T17:39:02.569Z,73.60
2022-08-28T17:41:30.118Z,38.47
2022-08-28T17:43:58.242Z,25.40
2022-08-28T17:46:28.666Z,34.93
2022-08-28T17:48:56.460Z,63.30
2022-08-28T17:51:41.859Z,23.27
2022-08-28T17:54:11.102Z,22.93
2022-08-28T17:56:38.655Z,14.90
2022-08-28T17:59:06.528Z,18.03
2022-08-28T18:01:36.388Z,16.67
2022-08-28T18:04:05.078Z,18.07
2022-08-28T18:06:33.179Z,13.40
2022-08-28T18:09:01.234Z,18.13
2022-08-28T18:11:29.278Z,17.47
2022-08-28T18:13:57.137Z,15.77
2022-08-28T18:16:30.390Z,18.53
2022-08-28T18:19:00.438Z,14.63
2022-08-28T18:21:29.081Z,18.63
2022-08-28T18:23:56.967Z,18.43
2022-08-28T18:26:24.665Z,19.13
2022-08-28T18:29:12.152Z,18.97
2022-08-28T18:31:39.915Z,16.67
2022-08-28T18:34:09.748Z,11.43
2022-08-28T18:36:39.837Z,17.00
2022-08-28T18:39:07.590Z,15.17
2022-08-28T18:41:43.547Z,25.90
2022-08-28T18:44:13.347Z,37.33
2022-08-28T18:46:41.131Z,21.67
2022-08-28T18:49:10.580Z,36.43
2022-08-28T18:51:38.807Z,41.30
2022-08-28T18:54:06.619Z,34.30
2022-08-28T18:56:35.563Z,21.00
2022-08-28T18:59:04.426Z,39.23
2022-08-28T19:01:32.253Z,26.70
2022-08-28T19:04:00.020Z,17.00
2022-08-28T19:06:28.955Z,34.67
2022-08-28T19:08:57.623Z,16.20
2022-08-28T19:11:25.483Z,14.80
2022-08-28T19:13:53.220Z,13.23
2022-08-28T19:16:21.675Z,23.87
2022-08-28T19:18:52.906Z,13.93
2022-08-28T19:21:21.184Z,15.63
2022-08-28T19:23:56.042Z,11.20
2022-08-28T19:26:24.840Z,13.90
2022-08-28T19:28:52.946Z,15.87
2022-08-28T19:31:20.657Z,12.77
2022-08-28T19:33:48.445Z,9.93
2022-08-28T19:36:16.391Z,20.60
2022-08-28T19:38:44.261Z,12.10
2022-08-28T19:41:13.864Z,14.07
2022-08-28T19:43:43.282Z,15.60
2022-08-28T19:46:19.385Z,14.03
2022-08-28T19:48:48.803Z,17.90
2022-08-28T19:51:22.184Z,16.67
2022-08-28T19:53:56.736Z,12.67
2022-08-28T19:56:28.076Z,16.70
2022-08-28T19:58:57.345Z,11.43
2022-08-28T20:01:25.912Z,19.70
2022-08-28T20:03:53.747Z,19.77
2022-08-28T20:06:21.406Z,14.70
2022-08-28T20:08:49.251Z,14.30
2022-08-28T20:11:17.738Z,15.60
2022-08-28T20:13:46.809Z,14.10
2022-08-28T20:16:14.453Z,13.43
2022-08-28T20:18:42.552Z,16.00
2022-08-28T20:21:12.027Z,19.63
2022-08-28T20:23:40.294Z,27.87
2022-08-28T20:26:09.590Z,28.37
2022-08-28T20:28:37.339Z,31.50
2022-08-28T20:31:09.886Z,22.17
2022-08-28T20:33:37.929Z,61.43
2022-08-28T20:36:06.298Z,70.93
2022-08-28T20:38:39.379Z,43.67
2022-08-28T20:41:07.995Z,21.80
2022-08-28T20:43:36.217Z,26.37
2022-08-28T20:46:04.153Z,20.00
2022-08-28T20:48:34.227Z,19.60
2022-08-28T20:51:02.771Z,18.87
2022-08-28T20:53:37.821Z,19.63
2022-08-28T20:56:06.812Z,15.23
2022-08-28T20:58:34.628Z,17.57
2022-08-28T21:01:02.759Z,18.00
2022-08-28T21:03:30.350Z,17.17
2022-08-28T21:05:59.699Z,10.67
2022-08-28T21:08:27.365Z,12.20
2022-08-28T21:10:55.017Z,18.37
2022-08-28T21:13:23.312Z,11.33
2022-08-28T21:15:50.928Z,11.10
2022-08-28T21:18:18.569Z,14.10
2022-08-28T21:20:46.845Z,15.43
2022-08-28T21:23:16.170Z,14.93
2022-08-28T21:25:44.078Z,18.60
2022-08-28T21:28:11.967Z,14.53
2022-08-28T21:30:41.466Z,14.93
2022-08-28T21:33:09.344Z,22.87
2022-08-28T21:35:37.457Z,16.20
2022-08-28T21:38:05.174Z,9.13
2022-08-28T21:40:35.204Z,13.73
2022-08-28T21:43:03.477Z,18.60
2022-08-28T21:45:31.062Z,11.73
2022-08-28T21:47:58.843Z,16.77
2022-08-28T21:50:29.297Z,15.80
2022-08-28T21:52:56.915Z,12.47
2022-08-28T21:55:24.594Z,58.93
2022-08-28T21:57:53.758Z,55.40
2022-08-28T22:00:22.695Z,32.03
2022-08-28T22:02:50.708Z,41.87
2022-08-28T22:05:18.764Z,28.10
2022-08-28T22:07:46.433Z,32.43
2022-08-28T22:10:14.931Z,58.30
2022-08-28T22:12:43.256Z,24.00
2022-08-28T22:15:12.733Z,49.10
2022-08-28T22:17:40.581Z,26.80
2022-08-28T22:20:08.927Z,23.50
2022-08-28T22:22:54.234Z,22.83
2022-08-28T22:25:22.459Z,22.03
2022-08-28T22:27:50.499Z,29.40
2022-08-28T22:30:19.860Z,16.83
2022-08-28T22:32:48.242Z,20.90
2022-08-28T22:35:15.909Z,24.60
2022-08-28T22:37:43.526Z,18.53
2022-08-28T22:40:13.311Z,23.53
2022-08-28T22:42:42.479Z,13.93
2022-08-28T22:45:10.645Z,15.17
2022-08-28T22:47:40.198Z,21.67
2022-08-28T22:50:08.445Z,15.23
2022-08-28T22:52:37.117Z,15.13
2022-08-28T22:55:06.699Z,16.80
2022-08-28T22:57:34.682Z,14.17
2022-08-28T23:00:04.126Z,11.27
2022-08-28T23:02:32.488Z,12.07
2022-08-28T23:05:01.420Z,19.87
2022-08-28T23:07:29.047Z,14.97
2022-08-28T23:09:57.100Z,18.20
2022-08-28T23:12:25.422Z,14.23
2022-08-28T23:14:53.282Z,10.57
2022-08-28T23:17:21.296Z,18.03
2022-08-28T23:19:49.359Z,14.00
2022-08-28T23:22:19.358Z,16.27
2022-08-28T23:24:48.618Z,12.00
2022-08-28T23:27:35.184Z,16.07
2022-08-28T23:30:04.057Z,12.00
2022-08-28T23:32:31.735Z,10.60
2022-08-28T23:35:02.726Z,13.80
2022-08-28T23:37:39.330Z,11.43
2022-08-28T23:40:08.109Z,12.00
2022-08-28T23:42:35.787Z,17.73
2022-08-28T23:45:05.208Z,12.53
2022-08-28T23:47:33.143Z,15.30
2022-08-28T23:50:00.786Z,14.73
2022-08-28T23:52:28.804Z,10.27
2022-08-28T23:54:57.897Z,16.13
2022-08-28T23:57:26.223Z,14.53
2022-08-28T23:59:54.583Z,17.53
